sensor_id;sensor_type;location;lat;lon;timestamp;P1;durP1;ratioP1;P2;durP2;ratioP2
22907;SDS011;11620;50.050;8.690;2023-06-10T00:01:37;0.40;;;0.40;;
22907;SDS011;11620;50.050;8.690;2023-06-10T00:04:23;0.30;;;0.30;;
22907;SDS011;11620;50.050;8.690;2023-06-10T00:07:10;0.30;;;0.30;;
22907;SDS011;11620;50.050;8.690;2023-06-10T00:09:56;0.40;;;0.40;;
22907;SDS011;11620;50.050;8.690;2023-06-10T00:12:43;0.30;;;0.30;;
22907;SDS011;11620;50.050;8.690;2023-06-10T00:15:29;0.40;;;0.40;;
22907;SDS011;11620;50.050;8.690;2023-06-10T00:18:16;0.38;;;0.38;;
22907;SDS011;11620;50.050;8.690;2023-06-10T00:21:03;0.40;;;0.40;;
22907;SDS011;11620;50.050;8.690;2023-06-10T00:23:50;0.30;;;0.30;;
22907;SDS011;11620;50.050;8.690;2023-06-10T00:26:37;0.30;;;0.30;;
22907;SDS011;11620;50.050;8.690;2023-06-10T00:29:24;0.20;;;0.20;;
22907;SDS011;11620;50.050;8.690;2023-06-10T00:32:11;0.40;;;0.40;;
22907;SDS011;11620;50.050;8.690;2023-06-10T00:34:57;0.32;;;0.32;;
22907;SDS011;11620;50.050;8.690;2023-06-10T00:37:43;0.40;;;0.40;;
22907;SDS011;11620;50.050;8.690;2023-06-10T00:40:30;0.20;;;0.20;;
22907;SDS011;11620;50.050;8.690;2023-06-10T00:43:16;0.38;;;0.38;;
22907;SDS011;11620;50.050;8.690;2023-06-10T00:46:02;0.30;;;0.30;;
22907;SDS011;11620;50.050;8.690;2023-06-10T00:48:49;0.35;;;0.35;;
22907;SDS011;11620;50.050;8.690;2023-06-10T00:51:35;0.50;;;0.50;;
22907;SDS011;11620;50.050;8.690;2023-06-10T00:54:22;0.40;;;0.40;;
22907;SDS011;11620;50.050;8.690;2023-06-10T00:57:08;0.17;;;0.17;;
22907;SDS011;11620;50.050;8.690;2023-06-10T00:59:55;0.50;;;0.50;;
22907;SDS011;11620;50.050;8.690;2023-06-10T01:02:42;0.20;;;0.20;;
22907;SDS011;11620;50.050;8.690;2023-06-10T01:05:28;0.40;;;0.40;;
22907;SDS011;11620;50.050;8.690;2023-06-10T01:11:28;0.25;;;0.25;;
22907;SDS011;11620;50.050;8.690;2023-06-10T01:14:20;0.30;;;0.30;;
22907;SDS011;11620;50.050;8.690;2023-06-10T01:17:07;0.20;;;0.20;;
22907;SDS011;11620;50.050;8.690;2023-06-10T01:19:55;0.40;;;0.40;;
22907;SDS011;11620;50.050;8.690;2023-06-10T01:22:42;0.25;;;0.25;;
22907;SDS011;11620;50.050;8.690;2023-06-10T01:25:31;0.30;;;0.30;;
22907;SDS011;11620;50.050;8.690;2023-06-10T01:28:23;0.40;;;0.40;;
22907;SDS011;11620;50.050;8.690;2023-06-10T01:34:24;0.35;;;0.35;;
22907;SDS011;11620;50.050;8.690;2023-06-10T01:37:13;0.40;;;0.40;;
22907;SDS011;11620;50.050;8.690;2023-06-10T01:40:03;0.30;;;0.30;;
22907;SDS011;11620;50.050;8.690;2023-06-10T01:42:51;0.30;;;0.30;;
22907;SDS011;11620;50.050;8.690;2023-06-10T01:45:38;0.40;;;0.40;;
22907;SDS011;11620;50.050;8.690;2023-06-10T01:48:24;0.40;;;0.40;;
22907;SDS011;11620;50.050;8.690;2023-06-10T01:51:10;0.32;;;0.32;;
22907;SDS011;11620;50.050;8.690;2023-06-10T01:53:57;0.38;;;0.38;;
22907;SDS011;11620;50.050;8.690;2023-06-10T01:56:43;0.30;;;0.30;;
22907;SDS011;11620;50.050;8.690;2023-06-10T01:59:29;0.30;;;0.30;;
22907;SDS011;11620;50.050;8.690;2023-06-10T02:02:16;0.40;;;0.40;;
22907;SDS011;11620;50.050;8.690;2023-06-10T02:05:02;0.40;;;0.40;;
22907;SDS011;11620;50.050;8.690;2023-06-10T02:07:49;0.30;;;0.30;;
22907;SDS011;11620;50.050;8.690;2023-06-10T02:10:35;0.40;;;0.40;;
22907;SDS011;11620;50.050;8.690;2023-06-10T02:13:22;0.40;;;0.40;;
22907;SDS011;11620;50.050;8.690;2023-06-10T02:16:08;0.30;;;0.30;;
22907;SDS011;11620;50.050;8.690;2023-06-10T02:18:58;0.40;;;0.40;;
22907;SDS011;11620;50.050;8.690;2023-06-10T02:21:46;0.43;;;0.43;;
22907;SDS011;11620;50.050;8.690;2023-06-10T02:24:32;0.30;;;0.30;;
22907;SDS011;11620;50.050;8.690;2023-06-10T02:27:18;0.30;;;0.30;;
22907;SDS011;11620;50.050;8.690;2023-06-10T02:30:05;0.35;;;0.35;;
22907;SDS011;11620;50.050;8.690;2023-06-10T02:32:52;0.25;;;0.25;;
22907;SDS011;11620;50.050;8.690;2023-06-10T02:35:38;0.40;;;0.40;;
22907;SDS011;11620;50.050;8.690;2023-06-10T02:38:25;0.30;;;0.30;;
22907;SDS011;11620;50.050;8.690;2023-06-10T02:41:11;0.40;;;0.40;;
22907;SDS011;11620;50.050;8.690;2023-06-10T02:43:57;0.30;;;0.30;;
22907;SDS011;11620;50.050;8.690;2023-06-10T02:46:44;0.40;;;0.40;;
22907;SDS011;11620;50.050;8.690;2023-06-10T02:49:30;0.30;;;0.30;;
22907;SDS011;11620;50.050;8.690;2023-06-10T02:52:16;0.40;;;0.40;;
22907;SDS011;11620;50.050;8.690;2023-06-10T02:55:03;0.40;;;0.40;;
22907;SDS011;11620;50.050;8.690;2023-06-10T02:57:49;0.30;;;0.30;;
22907;SDS011;11620;50.050;8.690;2023-06-10T03:00:36;0.25;;;0.25;;
22907;SDS011;11620;50.050;8.690;2023-06-10T03:03:22;0.40;;;0.40;;
22907;SDS011;11620;50.050;8.690;2023-06-10T03:06:12;0.20;;;0.20;;
22907;SDS011;11620;50.050;8.690;2023-06-10T03:08:59;0.30;;;0.30;;
22907;SDS011;11620;50.050;8.690;2023-06-10T03:11:46;0.40;;;0.40;;
22907;SDS011;11620;50.050;8.690;2023-06-10T03:14:32;0.40;;;0.40;;
22907;SDS011;11620;50.050;8.690;2023-06-10T03:17:20;0.47;;;0.47;;
22907;SDS011;11620;50.050;8.690;2023-06-10T03:20:07;0.50;;;0.50;;
22907;SDS011;11620;50.050;8.690;2023-06-10T03:22:55;0.38;;;0.38;;
22907;SDS011;11620;50.050;8.690;2023-06-10T03:25:42;0.40;;;0.40;;
22907;SDS011;11620;50.050;8.690;2023-06-10T03:28:28;0.30;;;0.30;;
22907;SDS011;11620;50.050;8.690;2023-06-10T03:31:14;0.40;;;0.40;;
22907;SDS011;11620;50.050;8.690;2023-06-10T03:34:02;0.43;;;0.43;;
22907;SDS011;11620;50.050;8.690;2023-06-10T03:36:48;0.30;;;0.30;;
22907;SDS011;11620;50.050;8.690;2023-06-10T03:39:35;0.30;;;0.30;;
22907;SDS011;11620;50.050;8.690;2023-06-10T03:42:21;0.40;;;0.40;;
22907;SDS011;11620;50.050;8.690;2023-06-10T03:45:08;0.50;;;0.50;;
22907;SDS011;11620;50.050;8.690;2023-06-10T03:47:54;0.43;;;0.43;;
22907;SDS011;11620;50.050;8.690;2023-06-10T03:50:42;0.43;;;0.43;;
22907;SDS011;11620;50.050;8.690;2023-06-10T03:53:28;0.35;;;0.35;;
22907;SDS011;11620;50.050;8.690;2023-06-10T03:56:14;0.50;;;0.50;;
22907;SDS011;11620;50.050;8.690;2023-06-10T03:59:01;0.40;;;0.40;;
22907;SDS011;11620;50.050;8.690;2023-06-10T04:01:47;0.40;;;0.40;;
22907;SDS011;11620;50.050;8.690;2023-06-10T04:04:33;0.40;;;0.40;;
22907;SDS011;11620;50.050;8.690;2023-06-10T04:07:27;0.30;;;0.30;;
22907;SDS011;11620;50.050;8.690;2023-06-10T04:10:31;0.40;;;0.40;;
22907;SDS011;11620;50.050;8.690;2023-06-10T04:13:17;0.40;;;0.40;;
22907;SDS011;11620;50.050;8.690;2023-06-10T04:16:05;0.30;;;0.30;;
22907;SDS011;11620;50.050;8.690;2023-06-10T04:18:51;0.40;;;0.40;;
22907;SDS011;11620;50.050;8.690;2023-06-10T04:21:37;0.40;;;0.40;;
22907;SDS011;11620;50.050;8.690;2023-06-10T04:24:24;0.30;;;0.30;;
22907;SDS011;11620;50.050;8.690;2023-06-10T04:27:10;0.43;;;0.43;;
22907;SDS011;11620;50.050;8.690;2023-06-10T04:29:57;0.30;;;0.30;;
22907;SDS011;11620;50.050;8.690;2023-06-10T04:32:43;0.40;;;0.40;;
22907;SDS011;11620;50.050;8.690;2023-06-10T04:35:29;0.40;;;0.40;;
22907;SDS011;11620;50.050;8.690;2023-06-10T04:38:16;0.40;;;0.40;;
22907;SDS011;11620;50.050;8.690;2023-06-10T04:41:02;0.45;;;0.45;;
22907;SDS011;11620;50.050;8.690;2023-06-10T04:43:49;0.30;;;0.30;;
22907;SDS011;11620;50.050;8.690;2023-06-10T04:46:35;0.43;;;0.43;;
22907;SDS011;11620;50.050;8.690;2023-06-10T04:49:21;0.50;;;0.50;;
22907;SDS011;11620;50.050;8.690;2023-06-10T04:52:07;0.40;;;0.40;;
22907;SDS011;11620;50.050;8.690;2023-06-10T04:54:54;0.40;;;0.40;;
22907;SDS011;11620;50.050;8.690;2023-06-10T04:57:40;0.50;;;0.50;;
22907;SDS011;11620;50.050;8.690;2023-06-10T05:00:26;0.40;;;0.40;;
22907;SDS011;11620;50.050;8.690;2023-06-10T05:03:13;0.40;;;0.40;;
22907;SDS011;11620;50.050;8.690;2023-06-10T05:05:59;0.50;;;0.50;;
22907;SDS011;11620;50.050;8.690;2023-06-10T05:08:46;0.50;;;0.50;;
22907;SDS011;11620;50.050;8.690;2023-06-10T05:11:32;0.22;;;0.22;;
22907;SDS011;11620;50.050;8.690;2023-06-10T05:14:18;0.32;;;0.32;;
22907;SDS011;11620;50.050;8.690;2023-06-10T05:17:06;0.43;;;0.43;;
22907;SDS011;11620;50.050;8.690;2023-06-10T05:19:52;0.50;;;0.50;;
22907;SDS011;11620;50.050;8.690;2023-06-10T05:22:39;0.30;;;0.30;;
22907;SDS011;11620;50.050;8.690;2023-06-10T05:25:26;0.30;;;0.30;;
22907;SDS011;11620;50.050;8.690;2023-06-10T05:27:55;0.30;;;0.30;;
22907;SDS011;11620;50.050;8.690;2023-06-10T05:30:39;0.40;;;0.40;;
22907;SDS011;11620;50.050;8.690;2023-06-10T05:33:26;0.40;;;0.40;;
22907;SDS011;11620;50.050;8.690;2023-06-10T05:36:12;0.30;;;0.30;;
22907;SDS011;11620;50.050;8.690;2023-06-10T05:38:58;0.50;;;0.50;;
22907;SDS011;11620;50.050;8.690;2023-06-10T05:41:45;0.40;;;0.40;;
22907;SDS011;11620;50.050;8.690;2023-06-10T05:44:32;0.40;;;0.40;;
22907;SDS011;11620;50.050;8.690;2023-06-10T05:47:18;0.47;;;0.47;;
22907;SDS011;11620;50.050;8.690;2023-06-10T05:50:05;0.40;;;0.40;;
22907;SDS011;11620;50.050;8.690;2023-06-10T05:52:52;0.50;;;0.50;;
22907;SDS011;11620;50.050;8.690;2023-06-10T05:55:44;0.35;;;0.35;;
22907;SDS011;11620;50.050;8.690;2023-06-10T05:58:31;0.40;;;0.40;;
22907;SDS011;11620;50.050;8.690;2023-06-10T06:01:17;0.50;;;0.50;;
22907;SDS011;11620;50.050;8.690;2023-06-10T06:04:04;0.40;;;0.40;;
22907;SDS011;11620;50.050;8.690;2023-06-10T06:06:50;0.40;;;0.40;;
22907;SDS011;11620;50.050;8.690;2023-06-10T06:09:36;0.50;;;0.50;;
22907;SDS011;11620;50.050;8.690;2023-06-10T06:12:23;0.65;;;0.65;;
22907;SDS011;11620;50.050;8.690;2023-06-10T06:15:09;0.60;;;0.60;;
22907;SDS011;11620;50.050;8.690;2023-06-10T06:17:56;0.70;;;0.70;;
22907;SDS011;11620;50.050;8.690;2023-06-10T06:20:43;0.70;;;0.70;;
22907;SDS011;11620;50.050;8.690;2023-06-10T06:23:29;0.52;;;0.52;;
22907;SDS011;11620;50.050;8.690;2023-06-10T06:26:16;0.50;;;0.50;;
22907;SDS011;11620;50.050;8.690;2023-06-10T06:29:02;0.60;;;0.60;;
22907;SDS011;11620;50.050;8.690;2023-06-10T06:31:48;0.60;;;0.60;;
22907;SDS011;11620;50.050;8.690;2023-06-10T06:34:35;0.60;;;0.60;;
22907;SDS011;11620;50.050;8.690;2023-06-10T06:37:22;0.52;;;0.52;;
22907;SDS011;11620;50.050;8.690;2023-06-10T06:40:11;0.50;;;0.50;;
22907;SDS011;11620;50.050;8.690;2023-06-10T06:42:58;0.60;;;0.60;;
22907;SDS011;11620;50.050;8.690;2023-06-10T06:45:44;0.60;;;0.60;;
22907;SDS011;11620;50.050;8.690;2023-06-10T06:48:31;0.60;;;0.60;;
22907;SDS011;11620;50.050;8.690;2023-06-10T06:51:17;0.70;;;0.70;;
22907;SDS011;11620;50.050;8.690;2023-06-10T06:54:03;0.60;;;0.60;;
22907;SDS011;11620;50.050;8.690;2023-06-10T06:56:51;0.60;;;0.60;;
22907;SDS011;11620;50.050;8.690;2023-06-10T06:59:37;0.60;;;0.60;;
22907;SDS011;11620;50.050;8.690;2023-06-10T07:02:24;0.50;;;0.50;;
22907;SDS011;11620;50.050;8.690;2023-06-10T07:05:10;0.50;;;0.50;;
22907;SDS011;11620;50.050;8.690;2023-06-10T07:07:56;0.70;;;0.70;;
22907;SDS011;11620;50.050;8.690;2023-06-10T07:10:42;0.70;;;0.70;;
22907;SDS011;11620;50.050;8.690;2023-06-10T07:13:29;0.65;;;0.65;;
22907;SDS011;11620;50.050;8.690;2023-06-10T07:16:15;0.60;;;0.60;;
22907;SDS011;11620;50.050;8.690;2023-06-10T07:19:01;0.60;;;0.60;;
22907;SDS011;11620;50.050;8.690;2023-06-10T07:21:48;0.55;;;0.55;;
22907;SDS011;11620;50.050;8.690;2023-06-10T07:24:34;0.60;;;0.60;;
22907;SDS011;11620;50.050;8.690;2023-06-10T07:27:20;0.60;;;0.60;;
22907;SDS011;11620;50.050;8.690;2023-06-10T07:30:07;0.50;;;0.50;;
22907;SDS011;11620;50.050;8.690;2023-06-10T07:32:54;0.60;;;0.60;;
22907;SDS011;11620;50.050;8.690;2023-06-10T07:35:41;0.70;;;0.70;;
22907;SDS011;11620;50.050;8.690;2023-06-10T07:38:28;0.63;;;0.63;;
22907;SDS011;11620;50.050;8.690;2023-06-10T07:41:15;0.50;;;0.50;;
22907;SDS011;11620;50.050;8.690;2023-06-10T07:44:03;0.57;;;0.57;;
22907;SDS011;11620;50.050;8.690;2023-06-10T07:46:50;0.50;;;0.50;;
22907;SDS011;11620;50.050;8.690;2023-06-10T07:49:36;0.60;;;0.60;;
22907;SDS011;11620;50.050;8.690;2023-06-10T07:52:22;0.70;;;0.70;;
22907;SDS011;11620;50.050;8.690;2023-06-10T07:55:08;0.57;;;0.57;;
22907;SDS011;11620;50.050;8.690;2023-06-10T07:57:55;0.40;;;0.40;;
22907;SDS011;11620;50.050;8.690;2023-06-10T08:00:41;0.60;;;0.60;;
22907;SDS011;11620;50.050;8.690;2023-06-10T08:03:28;0.60;;;0.60;;
22907;SDS011;11620;50.050;8.690;2023-06-10T08:06:14;0.70;;;0.70;;
22907;SDS011;11620;50.050;8.690;2023-06-10T08:09:03;0.70;;;0.70;;
22907;SDS011;11620;50.050;8.690;2023-06-10T08:11:49;0.60;;;0.60;;
22907;SDS011;11620;50.050;8.690;2023-06-10T08:14:35;0.63;;;0.63;;
22907;SDS011;11620;50.050;8.690;2023-06-10T08:17:22;0.65;;;0.65;;
22907;SDS011;11620;50.050;8.690;2023-06-10T08:20:09;0.80;;;0.80;;
22907;SDS011;11620;50.050;8.690;2023-06-10T08:22:55;0.63;;;0.63;;
22907;SDS011;11620;50.050;8.690;2023-06-10T08:25:42;0.60;;;0.60;;
22907;SDS011;11620;50.050;8.690;2023-06-10T08:28:28;0.70;;;0.70;;
22907;SDS011;11620;50.050;8.690;2023-06-10T08:31:14;0.60;;;0.60;;
22907;SDS011;11620;50.050;8.690;2023-06-10T08:34:01;0.60;;;0.60;;
22907;SDS011;11620;50.050;8.690;2023-06-10T08:36:47;0.60;;;0.60;;
22907;SDS011;11620;50.050;8.690;2023-06-10T08:39:38;0.60;;;0.60;;
22907;SDS011;11620;50.050;8.690;2023-06-10T08:42:30;0.60;;;0.60;;
22907;SDS011;11620;50.050;8.690;2023-06-10T08:45:19;0.55;;;0.55;;
22907;SDS011;11620;50.050;8.690;2023-06-10T08:48:07;0.60;;;0.60;;
22907;SDS011;11620;50.050;8.690;2023-06-10T08:50:56;0.60;;;0.60;;
22907;SDS011;11620;50.050;8.690;2023-06-10T08:53:49;0.60;;;0.60;;
22907;SDS011;11620;50.050;8.690;2023-06-10T08:56:42;0.70;;;0.70;;
22907;SDS011;11620;50.050;8.690;2023-06-10T08:59:29;0.80;;;0.80;;
22907;SDS011;11620;50.050;8.690;2023-06-10T09:02:15;0.60;;;0.60;;
22907;SDS011;11620;50.050;8.690;2023-06-10T09:05:05;0.52;;;0.52;;
22907;SDS011;11620;50.050;8.690;2023-06-10T09:07:53;0.63;;;0.63;;
22907;SDS011;11620;50.050;8.690;2023-06-10T09:10:41;0.55;;;0.55;;
22907;SDS011;11620;50.050;8.690;2023-06-10T09:13:27;0.70;;;0.70;;
22907;SDS011;11620;50.050;8.690;2023-06-10T09:16:14;0.60;;;0.60;;
22907;SDS011;11620;50.050;8.690;2023-06-10T09:19:02;0.57;;;0.57;;
22907;SDS011;11620;50.050;8.690;2023-06-10T09:21:53;0.60;;;0.60;;
22907;SDS011;11620;50.050;8.690;2023-06-10T09:24:40;0.65;;;0.65;;
22907;SDS011;11620;50.050;8.690;2023-06-10T09:27:26;0.70;;;0.70;;
22907;SDS011;11620;50.050;8.690;2023-06-10T09:30:31;0.70;;;0.70;;
22907;SDS011;11620;50.050;8.690;2023-06-10T09:33:18;0.60;;;0.60;;
22907;SDS011;11620;50.050;8.690;2023-06-10T09:36:10;0.70;;;0.70;;
22907;SDS011;11620;50.050;8.690;2023-06-10T09:38:57;0.60;;;0.60;;
22907;SDS011;11620;50.050;8.690;2023-06-10T09:41:44;0.70;;;0.70;;
22907;SDS011;11620;50.050;8.690;2023-06-10T09:44:31;0.60;;;0.60;;
22907;SDS011;11620;50.050;8.690;2023-06-10T09:47:21;0.60;;;0.60;;
22907;SDS011;11620;50.050;8.690;2023-06-10T09:50:08;0.60;;;0.60;;
22907;SDS011;11620;50.050;8.690;2023-06-10T09:52:55;0.60;;;0.60;;
22907;SDS011;11620;50.050;8.690;2023-06-10T09:55:42;0.50;;;0.50;;
22907;SDS011;11620;50.050;8.690;2023-06-10T09:58:39;0.40;;;0.40;;
22907;SDS011;11620;50.050;8.690;2023-06-10T10:01:30;0.60;;;0.60;;
22907;SDS011;11620;50.050;8.690;2023-06-10T10:04:22;0.55;;;0.55;;
22907;SDS011;11620;50.050;8.690;2023-06-10T10:07:10;0.60;;;0.60;;
22907;SDS011;11620;50.050;8.690;2023-06-10T10:09:57;0.60;;;0.60;;
22907;SDS011;11620;50.050;8.690;2023-06-10T10:12:43;0.50;;;0.50;;
22907;SDS011;11620;50.050;8.690;2023-06-10T10:15:33;0.60;;;0.60;;
22907;SDS011;11620;50.050;8.690;2023-06-10T10:18:21;0.50;;;0.50;;
22907;SDS011;11620;50.050;8.690;2023-06-10T10:21:15;0.40;;;0.40;;
22907;SDS011;11620;50.050;8.690;2023-06-10T10:24:12;0.50;;;0.50;;
22907;SDS011;11620;50.050;8.690;2023-06-10T10:27:05;0.60;;;0.60;;
22907;SDS011;11620;50.050;8.690;2023-06-10T10:29:59;0.60;;;0.60;;
22907;SDS011;11620;50.050;8.690;2023-06-10T10:35:43;0.60;;;0.60;;
22907;SDS011;11620;50.050;8.690;2023-06-10T10:38:29;0.50;;;0.50;;
22907;SDS011;11620;50.050;8.690;2023-06-10T10:41:18;0.40;;;0.40;;
22907;SDS011;11620;50.050;8.690;2023-06-10T10:44:08;0.35;;;0.35;;
22907;SDS011;11620;50.050;8.690;2023-06-10T10:46:55;0.60;;;0.60;;
22907;SDS011;11620;50.050;8.690;2023-06-10T10:49:43;0.50;;;0.50;;
22907;SDS011;11620;50.050;8.690;2023-06-10T10:52:46;0.30;;;0.30;;
22907;SDS011;11620;50.050;8.690;2023-06-10T10:55:38;0.60;;;0.60;;
22907;SDS011;11620;50.050;8.690;2023-06-10T10:58:24;0.38;;;0.38;;
22907;SDS011;11620;50.050;8.690;2023-06-10T11:01:12;0.47;;;0.47;;
22907;SDS011;11620;50.050;8.690;2023-06-10T11:04:02;0.40;;;0.40;;
22907;SDS011;11620;50.050;8.690;2023-06-10T11:06:53;0.38;;;0.38;;
22907;SDS011;11620;50.050;8.690;2023-06-10T11:09:40;0.40;;;0.40;;
22907;SDS011;11620;50.050;8.690;2023-06-10T11:15:32;0.40;;;0.40;;
22907;SDS011;11620;50.050;8.690;2023-06-10T11:18:28;0.30;;;0.30;;
22907;SDS011;11620;50.050;8.690;2023-06-10T11:21:16;0.20;;;0.20;;
22907;SDS011;11620;50.050;8.690;2023-06-10T11:24:11;0.57;;;0.57;;
22907;SDS011;11620;50.050;8.690;2023-06-10T11:33:05;0.50;;;0.50;;
22907;SDS011;11620;50.050;8.690;2023-06-10T11:35:52;0.40;;;0.40;;
22907;SDS011;11620;50.050;8.690;2023-06-10T11:38:38;0.40;;;0.40;;
22907;SDS011;11620;50.050;8.690;2023-06-10T11:41:26;0.40;;;0.40;;
22907;SDS011;11620;50.050;8.690;2023-06-10T11:44:14;0.40;;;0.40;;
22907;SDS011;11620;50.050;8.690;2023-06-10T11:47:01;0.38;;;0.38;;
22907;SDS011;11620;50.050;8.690;2023-06-10T11:49:55;0.43;;;0.43;;
22907;SDS011;11620;50.050;8.690;2023-06-10T11:52:42;0.32;;;0.32;;
22907;SDS011;11620;50.050;8.690;2023-06-10T11:55:41;0.35;;;0.35;;
22907;SDS011;11620;50.050;8.690;2023-06-10T11:58:31;0.40;;;0.40;;
22907;SDS011;11620;50.050;8.690;2023-06-10T12:01:21;0.30;;;0.30;;
22907;SDS011;11620;50.050;8.690;2023-06-10T12:04:12;0.50;;;0.50;;
22907;SDS011;11620;50.050;8.690;2023-06-10T12:06:59;0.40;;;0.40;;
22907;SDS011;11620;50.050;8.690;2023-06-10T12:09:46;0.40;;;0.40;;
22907;SDS011;11620;50.050;8.690;2023-06-10T12:12:34;0.30;;;0.30;;
22907;SDS011;11620;50.050;8.690;2023-06-10T12:15:25;0.30;;;0.30;;
22907;SDS011;11620;50.050;8.690;2023-06-10T12:18:29;0.50;;;0.50;;
22907;SDS011;11620;50.050;8.690;2023-06-10T12:21:17;0.40;;;0.40;;
22907;SDS011;11620;50.050;8.690;2023-06-10T12:24:09;0.30;;;0.30;;
22907;SDS011;11620;50.050;8.690;2023-06-10T12:26:57;0.30;;;0.30;;
22907;SDS011;11620;50.050;8.690;2023-06-10T12:29:50;0.40;;;0.40;;
22907;SDS011;11620;50.050;8.690;2023-06-10T12:32:40;0.30;;;0.30;;
22907;SDS011;11620;50.050;8.690;2023-06-10T12:35:32;0.40;;;0.40;;
22907;SDS011;11620;50.050;8.690;2023-06-10T12:38:21;0.30;;;0.30;;
22907;SDS011;11620;50.050;8.690;2023-06-10T12:41:10;0.30;;;0.30;;
22907;SDS011;11620;50.050;8.690;2023-06-10T12:43:57;0.30;;;0.30;;
22907;SDS011;11620;50.050;8.690;2023-06-10T12:46:43;0.50;;;0.50;;
22907;SDS011;11620;50.050;8.690;2023-06-10T12:49:30;0.60;;;0.60;;
22907;SDS011;11620;50.050;8.690;2023-06-10T12:52:16;0.40;;;0.40;;
22907;SDS011;11620;50.050;8.690;2023-06-10T12:55:02;0.40;;;0.40;;
22907;SDS011;11620;50.050;8.690;2023-06-10T12:57:50;0.43;;;0.43;;
22907;SDS011;11620;50.050;8.690;2023-06-10T13:00:36;0.30;;;0.30;;
22907;SDS011;11620;50.050;8.690;2023-06-10T13:03:23;0.45;;;0.45;;
22907;SDS011;11620;50.050;8.690;2023-06-10T13:06:09;0.52;;;0.52;;
22907;SDS011;11620;50.050;8.690;2023-06-10T13:08:56;0.40;;;0.40;;
22907;SDS011;11620;50.050;8.690;2023-06-10T13:11:42;0.50;;;0.50;;
22907;SDS011;11620;50.050;8.690;2023-06-10T13:14:28;0.50;;;0.50;;
22907;SDS011;11620;50.050;8.690;2023-06-10T13:17:15;0.40;;;0.40;;
22907;SDS011;11620;50.050;8.690;2023-06-10T13:20:05;0.30;;;0.30;;
22907;SDS011;11620;50.050;8.690;2023-06-10T13:22:52;0.30;;;0.30;;
22907;SDS011;11620;50.050;8.690;2023-06-10T13:25:38;0.20;;;0.20;;
22907;SDS011;11620;50.050;8.690;2023-06-10T13:28:26;0.30;;;0.30;;
22907;SDS011;11620;50.050;8.690;2023-06-10T13:31:12;0.30;;;0.30;;
22907;SDS011;11620;50.050;8.690;2023-06-10T13:33:59;0.32;;;0.32;;
22907;SDS011;11620;50.050;8.690;2023-06-10T13:36:45;0.30;;;0.30;;
22907;SDS011;11620;50.050;8.690;2023-06-10T13:39:31;0.40;;;0.40;;
22907;SDS011;11620;50.050;8.690;2023-06-10T13:42:18;0.40;;;0.40;;
22907;SDS011;11620;50.050;8.690;2023-06-10T13:45:04;0.50;;;0.50;;
22907;SDS011;11620;50.050;8.690;2023-06-10T13:47:51;0.50;;;0.50;;
22907;SDS011;11620;50.050;8.690;2023-06-10T13:50:38;0.50;;;0.50;;
22907;SDS011;11620;50.050;8.690;2023-06-10T13:53:24;0.40;;;0.40;;
22907;SDS011;11620;50.050;8.690;2023-06-10T13:56:10;0.30;;;0.30;;
22907;SDS011;11620;50.050;8.690;2023-06-10T13:58:57;0.40;;;0.40;;
22907;SDS011;11620;50.050;8.690;2023-06-10T14:01:43;0.38;;;0.38;;
22907;SDS011;11620;50.050;8.690;2023-06-10T14:04:30;0.30;;;0.30;;
22907;SDS011;11620;50.050;8.690;2023-06-10T14:07:16;0.30;;;0.30;;
22907;SDS011;11620;50.050;8.690;2023-06-10T14:10:03;0.32;;;0.32;;
22907;SDS011;11620;50.050;8.690;2023-06-10T14:12:49;0.22;;;0.22;;
22907;SDS011;11620;50.050;8.690;2023-06-10T14:15:36;0.32;;;0.32;;
22907;SDS011;11620;50.050;8.690;2023-06-10T14:18:22;0.50;;;0.50;;
22907;SDS011;11620;50.050;8.690;2023-06-10T14:21:09;0.40;;;0.40;;
22907;SDS011;11620;50.050;8.690;2023-06-10T14:23:55;0.40;;;0.40;;
22907;SDS011;11620;50.050;8.690;2023-06-10T14:26:41;0.40;;;0.40;;
22907;SDS011;11620;50.050;8.690;2023-06-10T14:29:28;0.40;;;0.40;;
22907;SDS011;11620;50.050;8.690;2023-06-10T14:32:14;0.50;;;0.50;;
22907;SDS011;11620;50.050;8.690;2023-06-10T14:35:01;0.40;;;0.40;;
22907;SDS011;11620;50.050;8.690;2023-06-10T14:37:48;0.45;;;0.45;;
22907;SDS011;11620;50.050;8.690;2023-06-10T14:40:35;0.20;;;0.20;;
22907;SDS011;11620;50.050;8.690;2023-06-10T14:43:21;0.38;;;0.38;;
22907;SDS011;11620;50.050;8.690;2023-06-10T14:46:07;0.25;;;0.25;;
22907;SDS011;11620;50.050;8.690;2023-06-10T14:48:54;0.30;;;0.30;;
22907;SDS011;11620;50.050;8.690;2023-06-10T14:51:40;0.30;;;0.30;;
22907;SDS011;11620;50.050;8.690;2023-06-10T14:54:26;0.40;;;0.40;;
22907;SDS011;11620;50.050;8.690;2023-06-10T14:57:13;0.30;;;0.30;;
22907;SDS011;11620;50.050;8.690;2023-06-10T14:59:59;0.30;;;0.30;;
22907;SDS011;11620;50.050;8.690;2023-06-10T15:02:46;0.30;;;0.30;;
22907;SDS011;11620;50.050;8.690;2023-06-10T15:05:35;0.30;;;0.30;;
22907;SDS011;11620;50.050;8.690;2023-06-10T15:08:23;0.40;;;0.40;;
22907;SDS011;11620;50.050;8.690;2023-06-10T15:11:09;0.40;;;0.40;;
22907;SDS011;11620;50.050;8.690;2023-06-10T15:13:56;0.30;;;0.30;;
22907;SDS011;11620;50.050;8.690;2023-06-10T15:16:43;0.35;;;0.35;;
22907;SDS011;11620;50.050;8.690;2023-06-10T15:19:29;0.40;;;0.40;;
22907;SDS011;11620;50.050;8.690;2023-06-10T15:22:16;0.40;;;0.40;;
22907;SDS011;11620;50.050;8.690;2023-06-10T15:25:02;0.30;;;0.30;;
22907;SDS011;11620;50.050;8.690;2023-06-10T15:27:49;0.40;;;0.40;;
22907;SDS011;11620;50.050;8.690;2023-06-10T15:30:35;0.30;;;0.30;;
22907;SDS011;11620;50.050;8.690;2023-06-10T15:33:23;0.40;;;0.40;;
22907;SDS011;11620;50.050;8.690;2023-06-10T15:36:09;0.40;;;0.40;;
22907;SDS011;11620;50.050;8.690;2023-06-10T15:38:56;0.40;;;0.40;;
22907;SDS011;11620;50.050;8.690;2023-06-10T15:41:47;0.40;;;0.40;;
22907;SDS011;11620;50.050;8.690;2023-06-10T15:44:34;0.30;;;0.30;;
22907;SDS011;11620;50.050;8.690;2023-06-10T15:47:20;0.35;;;0.35;;
22907;SDS011;11620;50.050;8.690;2023-06-10T15:50:07;0.30;;;0.30;;
22907;SDS011;11620;50.050;8.690;2023-06-10T15:52:54;0.40;;;0.40;;
22907;SDS011;11620;50.050;8.690;2023-06-10T15:55:40;0.30;;;0.30;;
22907;SDS011;11620;50.050;8.690;2023-06-10T15:58:26;0.30;;;0.30;;
22907;SDS011;11620;50.050;8.690;2023-06-10T16:01:12;0.30;;;0.30;;
22907;SDS011;11620;50.050;8.690;2023-06-10T16:03:59;0.40;;;0.40;;
22907;SDS011;11620;50.050;8.690;2023-06-10T16:06:46;0.40;;;0.40;;
22907;SDS011;11620;50.050;8.690;2023-06-10T16:09:34;0.40;;;0.40;;
22907;SDS011;11620;50.050;8.690;2023-06-10T16:12:00;0.30;;;0.30;;
22907;SDS011;11620;50.050;8.690;2023-06-10T16:14:26;0.30;;;0.30;;
22907;SDS011;11620;50.050;8.690;2023-06-10T16:16:52;0.40;;;0.40;;
22907;SDS011;11620;50.050;8.690;2023-06-10T16:19:18;0.40;;;0.40;;
22907;SDS011;11620;50.050;8.690;2023-06-10T16:21:45;0.50;;;0.50;;
22907;SDS011;11620;50.050;8.690;2023-06-10T16:24:11;0.30;;;0.30;;
22907;SDS011;11620;50.050;8.690;2023-06-10T16:26:37;0.30;;;0.30;;
22907;SDS011;11620;50.050;8.690;2023-06-10T16:29:03;0.30;;;0.30;;
22907;SDS011;11620;50.050;8.690;2023-06-10T16:31:29;0.30;;;0.30;;
22907;SDS011;11620;50.050;8.690;2023-06-10T16:33:55;0.30;;;0.30;;
22907;SDS011;11620;50.050;8.690;2023-06-10T16:36:21;0.25;;;0.25;;
22907;SDS011;11620;50.050;8.690;2023-06-10T16:38:47;0.30;;;0.30;;
22907;SDS011;11620;50.050;8.690;2023-06-10T16:41:13;0.30;;;0.30;;
22907;SDS011;11620;50.050;8.690;2023-06-10T16:43:39;0.32;;;0.32;;
22907;SDS011;11620;50.050;8.690;2023-06-10T16:46:26;0.30;;;0.30;;
22907;SDS011;11620;50.050;8.690;2023-06-10T16:49:14;0.30;;;0.30;;
22907;SDS011;11620;50.050;8.690;2023-06-10T16:52:00;0.32;;;0.32;;
22907;SDS011;11620;50.050;8.690;2023-06-10T16:54:47;0.30;;;0.30;;
22907;SDS011;11620;50.050;8.690;2023-06-10T16:57:33;0.30;;;0.30;;
22907;SDS011;11620;50.050;8.690;2023-06-10T17:00:19;0.45;;;0.45;;
22907;SDS011;11620;50.050;8.690;2023-06-10T17:03:06;0.30;;;0.30;;